DLH4MJ LHBP-EDDM
Flight info
| Callsign | DLH4MJ |
|---|---|
| Flight time | N/A |
| Altitude | 34000 |
| Route | GILEP DCT ZOLKU DCT ARSIN DCT SITNI DCT BAGSI DCT MATIG DCT AMADI Q113 NAPSA NAPSA1B |
| Aircraft | A346/H-SDE2E3FGHIJ3J4J5M1RWXY/LB1D1 |
Departure
| Time | 2026-05-07 10:22 |
|---|---|
| Airport | Budapest Liszt Ferenc International Airport (LHBP) |
Arrival
| Time | N/A |
|---|---|
| Airport | Munich Airport (EDDM) |
| Time | Latitude | Longitude | Altitude | Speed | Heading |
|---|---|---|---|---|---|
| 2026-05-07 10:01 | 47.43237 | 19.25773 | 466 ft | 0 kts | 43° |
| 2026-05-07 10:13 | 47.43238 | 19.25773 | 466 ft | 0 kts | 43° |
| 2026-05-07 10:14 | 47.43234 | 19.25768 | 466 ft | 0 kts | 43° |
| 2026-05-07 10:14 | 47.43216 | 19.25743 | 464 ft | 0 kts | 43° |
| 2026-05-07 10:14 | 47.43196 | 19.25717 | 461 ft | 0 kts | 43° |
| 2026-05-07 10:14 | 47.43179 | 19.25693 | 462 ft | 0 kts | 43° |
| 2026-05-07 10:15 | 47.43178 | 19.25691 | 462 ft | 0 kts | 43° |
| 2026-05-07 10:15 | 47.43172 | 19.25683 | 463 ft | 0 kts | 43° |
| 2026-05-07 10:15 | 47.43165 | 19.25674 | 460 ft | 0 kts | 21° |
| 2026-05-07 10:16 | 47.43180 | 19.25697 | 462 ft | 0 kts | 313° |
| 2026-05-07 10:16 | 47.43180 | 19.25696 | 462 ft | 0 kts | 313° |
| 2026-05-07 10:16 | 47.43182 | 19.25692 | 463 ft | 1 kts | 313° |
| 2026-05-07 10:17 | 47.43184 | 19.25689 | 462 ft | 0 kts | 313° |
| 2026-05-07 10:18 | 47.43187 | 19.25685 | 460 ft | 2 kts | 313° |
| 2026-05-07 10:19 | 47.43211 | 19.25646 | 466 ft | 7 kts | 313° |
| 2026-05-07 10:19 | 47.43252 | 19.25580 | 466 ft | 10 kts | 312° |
| 2026-05-07 10:19 | 47.43306 | 19.25492 | 466 ft | 13 kts | 313° |
| 2026-05-07 10:19 | 47.43323 | 19.25379 | 466 ft | 12 kts | 243° |
| 2026-05-07 10:20 | 47.43270 | 19.25290 | 466 ft | 7 kts | 223° |
| 2026-05-07 10:20 | 47.43227 | 19.25229 | 466 ft | 10 kts | 223° |
| 2026-05-07 10:20 | 47.43168 | 19.25152 | 466 ft | 12 kts | 222° |
| 2026-05-07 10:20 | 47.43107 | 19.25053 | 466 ft | 14 kts | 244° |
| 2026-05-07 10:21 | 47.43125 | 19.24910 | 465 ft | 17 kts | 305° |
| 2026-05-07 10:21 | 47.43151 | 19.24859 | 465 ft | 1 kts | 312° |
| 2026-05-07 10:21 | 47.43165 | 19.24836 | 465 ft | 5 kts | 312° |
| 2026-05-07 10:21 | 47.43243 | 19.24712 | 464 ft | 44 kts | 312° |
| 2026-05-07 10:22 | 47.43612 | 19.24117 | 461 ft | 110 kts | 312° |
| 2026-05-07 10:22 | 47.44259 | 19.23072 | 464 ft | 163 kts | 312° |
| 2026-05-07 10:22 | 47.45093 | 19.21797 | 825 ft | 176 kts | 309° |
| 2026-05-07 10:22 | 47.45941 | 19.20472 | 1330 ft | 183 kts | 309° |
| 2026-05-07 10:23 | 47.46800 | 19.19082 | 2055 ft | 181 kts | 307° |
| 2026-05-07 10:23 | 47.47633 | 19.17682 | 2697 ft | 184 kts | 305° |
| 2026-05-07 10:23 | 47.48347 | 19.16051 | 3037 ft | 195 kts | 284° |
| 2026-05-07 10:23 | 47.48334 | 19.13998 | 3385 ft | 210 kts | 253° |
| 2026-05-07 10:24 | 47.47827 | 19.11852 | 3761 ft | 231 kts | 250° |
| 2026-05-07 10:24 | 47.47245 | 19.09536 | 4281 ft | 248 kts | 243° |
| 2026-05-07 10:24 | 47.46127 | 19.07570 | 5014 ft | 255 kts | 215° |
| 2026-05-07 10:24 | 47.44557 | 19.06341 | 5957 ft | 255 kts | 206° |
| 2026-05-07 10:25 | 47.42924 | 19.05283 | 6883 ft | 258 kts | 205° |
| 2026-05-07 10:25 | 47.41273 | 19.04200 | 7739 ft | 261 kts | 205° |
| 2026-05-07 10:25 | 47.39634 | 19.03084 | 8622 ft | 265 kts | 206° |
| 2026-05-07 10:25 | 47.37955 | 19.01912 | 9535 ft | 269 kts | 206° |
| 2026-05-07 10:26 | 47.36640 | 19.00983 | 10216 ft | 272 kts | 206° |
| 2026-05-07 10:26 | 47.35624 | 19.00263 | 10644 ft | 278 kts | 206° |
| 2026-05-07 10:26 | 47.33814 | 18.98976 | 11176 ft | 296 kts | 207° |
| 2026-05-07 10:27 | 47.32061 | 18.97255 | 11615 ft | 314 kts | 224° |
| 2026-05-07 10:27 | 47.31139 | 18.95545 | 11903 ft | 327 kts | 238° |
| 2026-05-07 10:27 | 47.30333 | 18.92318 | 12317 ft | 348 kts | 259° |
| 2026-05-07 10:27 | 47.30723 | 18.87467 | 13109 ft | 370 kts | 290° |
| 2026-05-07 10:28 | 47.31525 | 18.85229 | 13702 ft | 373 kts | 297° |
| 2026-05-07 10:28 | 47.32828 | 18.81904 | 14457 ft | 376 kts | 296° |
| 2026-05-07 10:28 | 47.34140 | 18.78522 | 15177 ft | 382 kts | 296° |
| 2026-05-07 10:28 | 47.35461 | 18.75095 | 15950 ft | 386 kts | 296° |
| 2026-05-07 10:29 | 47.36795 | 18.71622 | 16763 ft | 390 kts | 296° |
| 2026-05-07 10:29 | 47.38142 | 18.68110 | 17534 ft | 394 kts | 296° |
| 2026-05-07 10:29 | 47.39501 | 18.64560 | 18315 ft | 399 kts | 296° |
| 2026-05-07 10:30 | 47.41877 | 18.57134 | 19613 ft | 405 kts | 287° |
| 2026-05-07 10:30 | 47.42789 | 18.53183 | 20253 ft | 408 kts | 283° |
| 2026-05-07 10:30 | 47.43618 | 18.49141 | 20912 ft | 411 kts | 282° |
| 2026-05-07 10:30 | 47.44440 | 18.45062 | 21570 ft | 415 kts | 282° |
| 2026-05-07 10:31 | 47.45269 | 18.40951 | 22238 ft | 419 kts | 282° |
| 2026-05-07 10:31 | 47.46109 | 18.36797 | 22892 ft | 424 kts | 282° |
| 2026-05-07 10:31 | 47.46960 | 18.32594 | 23529 ft | 428 kts | 282° |
| 2026-05-07 10:31 | 47.47817 | 18.28355 | 24065 ft | 432 kts | 282° |
| 2026-05-07 10:32 | 47.48617 | 18.24065 | 24641 ft | 433 kts | 280° |
| 2026-05-07 10:32 | 47.49348 | 18.19726 | 25257 ft | 435 kts | 279° |
| 2026-05-07 10:32 | 47.50073 | 18.15349 | 25861 ft | 437 kts | 278° |
| 2026-05-07 10:32 | 47.50782 | 18.11020 | 26441 ft | 439 kts | 278° |
| 2026-05-07 10:33 | 47.51504 | 18.06610 | 27005 ft | 441 kts | 278° |
| 2026-05-07 10:33 | 47.52228 | 18.02184 | 27554 ft | 444 kts | 278° |
| 2026-05-07 10:33 | 47.52961 | 17.97703 | 28155 ft | 446 kts | 278° |
| 2026-05-07 10:33 | 47.53689 | 17.93239 | 28801 ft | 445 kts | 278° |
| 2026-05-07 10:34 | 47.54411 | 17.88780 | 29637 ft | 441 kts | 277° |
| 2026-05-07 10:34 | 47.55004 | 17.84359 | 30434 ft | 434 kts | 274° |
| 2026-05-07 10:34 | 47.55433 | 17.79956 | 31167 ft | 429 kts | 271° |
| 2026-05-07 10:34 | 47.55704 | 17.75564 | 31799 ft | 425 kts | 268° |
| 2026-05-07 10:35 | 47.55820 | 17.71208 | 32427 ft | 421 kts | 265° |
| 2026-05-07 10:35 | 47.55881 | 17.66918 | 33036 ft | 420 kts | 265° |
| 2026-05-07 10:35 | 47.55936 | 17.62586 | 33553 ft | 420 kts | 265° |
| 2026-05-07 10:35 | 47.55988 | 17.58245 | 33956 ft | 422 kts | 265° |
| 2026-05-07 10:36 | 47.56088 | 17.49570 | 33986 ft | 422 kts | 265° |
| 2026-05-07 10:36 | 47.56185 | 17.40859 | 33997 ft | 422 kts | 265° |
| 2026-05-07 10:37 | 47.56283 | 17.32088 | 34017 ft | 422 kts | 264° |
| 2026-05-07 10:37 | 47.56356 | 17.23365 | 34062 ft | 424 kts | 264° |
| 2026-05-07 10:38 | 47.56451 | 17.14654 | 34008 ft | 422 kts | 264° |
| 2026-05-07 10:38 | 47.56522 | 17.05916 | 33999 ft | 422 kts | 264° |
| 2026-05-07 10:39 | 47.56585 | 16.97227 | 33991 ft | 422 kts | 264° |
| 2026-05-07 10:39 | 47.56671 | 16.88480 | 34008 ft | 427 kts | 265° |
| 2026-05-07 10:40 | 47.57188 | 16.79674 | 33997 ft | 433 kts | 270° |
| 2026-05-07 10:40 | 47.58342 | 16.70866 | 33995 ft | 440 kts | 276° |
| 2026-05-07 10:41 | 47.60162 | 16.62133 | 33993 ft | 447 kts | 282° |
| 2026-05-07 10:41 | 47.62399 | 16.53530 | 33992 ft | 445 kts | 283° |
| 2026-05-07 10:42 | 47.64650 | 16.44965 | 33991 ft | 445 kts | 283° |
| 2026-05-07 10:42 | 47.66886 | 16.36408 | 33994 ft | 444 kts | 283° |
| 2026-05-07 10:43 | 47.69101 | 16.27888 | 33992 ft | 444 kts | 283° |
| 2026-05-07 10:43 | 47.71325 | 16.19302 | 33993 ft | 444 kts | 282° |
| 2026-05-07 10:44 | 47.73525 | 16.10760 | 34002 ft | 438 kts | 283° |
| 2026-05-07 10:44 | 47.75702 | 16.02304 | 33995 ft | 437 kts | 283° |
| 2026-05-07 10:45 | 47.77869 | 15.93846 | 33992 ft | 436 kts | 283° |
| 2026-05-07 10:45 | 47.80025 | 15.85395 | 33993 ft | 436 kts | 283° |
| 2026-05-07 10:46 | 47.82165 | 15.76982 | 34024 ft | 437 kts | 283° |
| 2026-05-07 10:46 | 47.84316 | 15.68490 | 34004 ft | 438 kts | 283° |
| 2026-05-07 10:47 | 47.86458 | 15.60006 | 33997 ft | 437 kts | 282° |
| 2026-05-07 10:47 | 47.88591 | 15.51517 | 34001 ft | 437 kts | 282° |
| 2026-05-07 10:48 | 47.90719 | 15.43018 | 34002 ft | 437 kts | 282° |
| 2026-05-07 10:48 | 47.92851 | 15.34497 | 34010 ft | 439 kts | 282° |
| 2026-05-07 10:49 | 47.94975 | 15.25943 | 34001 ft | 439 kts | 282° |
| 2026-05-07 10:49 | 47.97082 | 15.17427 | 34003 ft | 440 kts | 282° |
| 2026-05-07 10:50 | 47.99198 | 15.08850 | 33999 ft | 440 kts | 282° |
| 2026-05-07 10:50 | 48.01314 | 15.00241 | 34043 ft | 440 kts | 281° |
| 2026-05-07 10:51 | 48.03284 | 14.91556 | 34012 ft | 437 kts | 277° |
| 2026-05-07 10:51 | 48.04042 | 14.87172 | 33868 ft | 434 kts | 274° |
| 2026-05-07 10:51 | 48.04639 | 14.82769 | 33588 ft | 428 kts | 271° |
| 2026-05-07 10:52 | 48.05075 | 14.78389 | 33303 ft | 423 kts | 269° |
| 2026-05-07 10:52 | 48.05356 | 14.74038 | 33023 ft | 417 kts | 266° |
| 2026-05-07 10:52 | 48.05488 | 14.69713 | 32774 ft | 413 kts | 263° |
| 2026-05-07 10:52 | 48.05530 | 14.65423 | 32502 ft | 413 kts | 263° |
| 2026-05-07 10:53 | 48.05565 | 14.61182 | 32234 ft | 413 kts | 263° |
| 2026-05-07 10:53 | 48.05597 | 14.56809 | 32001 ft | 415 kts | 263° |
| 2026-05-07 10:53 | 48.05627 | 14.52532 | 31753 ft | 417 kts | 263° |
| 2026-05-07 10:53 | 48.05659 | 14.48175 | 31487 ft | 418 kts | 263° |
| 2026-05-07 10:54 | 48.05690 | 14.43823 | 31227 ft | 419 kts | 263° |
| 2026-05-07 10:54 | 48.05718 | 14.39456 | 30960 ft | 419 kts | 262° |
| 2026-05-07 10:54 | 48.05744 | 14.35082 | 30592 ft | 420 kts | 262° |
| 2026-05-07 10:54 | 48.05768 | 14.30692 | 30119 ft | 421 kts | 262° |
| 2026-05-07 10:55 | 48.05788 | 14.26307 | 29476 ft | 421 kts | 262° |
| 2026-05-07 10:55 | 48.05803 | 14.21922 | 28814 ft | 421 kts | 262° |
| 2026-05-07 10:55 | 48.05815 | 14.17529 | 28156 ft | 421 kts | 262° |
| 2026-05-07 10:55 | 48.05822 | 14.13133 | 27570 ft | 421 kts | 263° |
| 2026-05-07 10:56 | 48.05833 | 14.08779 | 27154 ft | 416 kts | 264° |
| 2026-05-07 10:56 | 48.05846 | 14.04535 | 26759 ft | 411 kts | 264° |
| 2026-05-07 10:56 | 48.05858 | 14.00274 | 26343 ft | 407 kts | 264° |
| 2026-05-07 10:56 | 48.05867 | 13.96039 | 25923 ft | 403 kts | 264° |
| 2026-05-07 10:57 | 48.05873 | 13.91867 | 25515 ft | 399 kts | 264° |
| 2026-05-07 10:57 | 48.05877 | 13.87719 | 25110 ft | 396 kts | 264° |
| 2026-05-07 10:57 | 48.05878 | 13.83610 | 24703 ft | 393 kts | 264° |
| 2026-05-07 10:57 | 48.05879 | 13.79527 | 24294 ft | 391 kts | 264° |
| 2026-05-07 10:58 | 48.05878 | 13.75462 | 23886 ft | 389 kts | 264° |
| 2026-05-07 10:58 | 48.05874 | 13.71407 | 23461 ft | 387 kts | 265° |
| 2026-05-07 10:58 | 48.05867 | 13.67377 | 22961 ft | 386 kts | 266° |
| 2026-05-07 10:58 | 48.05865 | 13.63370 | 22512 ft | 384 kts | 266° |
| 2026-05-07 10:59 | 48.05863 | 13.59437 | 22081 ft | 381 kts | 266° |
| 2026-05-07 10:59 | 48.05872 | 13.55486 | 21677 ft | 379 kts | 268° |
| 2026-05-07 10:59 | 48.05998 | 13.51552 | 21277 ft | 377 kts | 270° |
| 2026-05-07 10:59 | 48.06202 | 13.47645 | 20631 ft | 378 kts | 271° |
| 2026-05-07 11:00 | 48.06414 | 13.43669 | 19681 ft | 388 kts | 271° |
| 2026-05-07 11:00 | 48.06631 | 13.39629 | 19072 ft | 388 kts | 272° |
| 2026-05-07 11:00 | 48.06849 | 13.35617 | 18574 ft | 385 kts | 272° |
| 2026-05-07 11:00 | 48.07064 | 13.31628 | 18047 ft | 382 kts | 272° |
| 2026-05-07 11:01 | 48.07457 | 13.27704 | 17411 ft | 383 kts | 283° |
| 2026-05-07 11:01 | 48.08329 | 13.23957 | 16925 ft | 379 kts | 288° |
| 2026-05-07 11:01 | 48.09290 | 13.20297 | 16384 ft | 377 kts | 289° |
| 2026-05-07 11:01 | 48.10263 | 13.16651 | 15818 ft | 375 kts | 289° |
| 2026-05-07 11:02 | 48.11232 | 13.13033 | 15319 ft | 373 kts | 289° |
| 2026-05-07 11:02 | 48.12186 | 13.09478 | 14825 ft | 370 kts | 289° |
| 2026-05-07 11:02 | 48.13148 | 13.05921 | 14340 ft | 367 kts | 290° |
| 2026-05-07 11:02 | 48.14096 | 13.02383 | 13810 ft | 365 kts | 289° |
| 2026-05-07 11:03 | 48.15044 | 12.98862 | 13267 ft | 363 kts | 289° |
| 2026-05-07 11:03 | 48.15985 | 12.95371 | 12801 ft | 359 kts | 289° |
| 2026-05-07 11:03 | 48.16919 | 12.91916 | 12300 ft | 356 kts | 289° |
| 2026-05-07 11:03 | 48.17843 | 12.88492 | 11854 ft | 351 kts | 289° |
| 2026-05-07 11:04 | 48.18748 | 12.85121 | 11442 ft | 345 kts | 289° |
| 2026-05-07 11:04 | 48.19085 | 12.83856 | 11272 ft | 342 kts | 289° |